createdAt,value
2019-03-04T00:03:37.827Z,66.68
2019-03-04T00:08:44.936Z,66.75
2019-03-04T00:13:51.897Z,66.87
2019-03-04T00:18:58.860Z,66.09
2019-03-04T00:24:05.827Z,65.55
2019-03-04T00:29:12.782Z,65.75
2019-03-04T00:34:19.743Z,65.39
2019-03-04T00:39:26.712Z,65.00
2019-03-04T00:44:33.686Z,64.61
2019-03-04T00:49:40.611Z,65.52
2019-03-04T00:54:49.402Z,66.27
2019-03-04T00:59:56.373Z,67.08
2019-03-04T01:05:03.569Z,67.36
2019-03-04T01:10:11.390Z,67.45
2019-03-04T01:15:19.626Z,66.84
2019-03-04T01:20:26.580Z,67.34
2019-03-04T01:25:34.582Z,67.94
2019-03-04T01:30:41.691Z,68.53
2019-03-04T01:35:48.604Z,69.75
2019-03-04T01:40:55.529Z,68.73
2019-03-04T01:46:02.630Z,68.61
2019-03-04T01:51:09.630Z,67.89
2019-03-04T01:56:16.647Z,67.64
2019-03-04T02:01:23.679Z,67.85
2019-03-04T02:06:30.608Z,68.08
2019-03-04T02:11:37.586Z,67.63
2019-03-04T02:16:44.561Z,67.67
2019-03-04T02:21:51.492Z,67.12
2019-03-04T02:26:59.622Z,66.82
2019-03-04T02:32:06.657Z,66.70
2019-03-04T02:37:16.600Z,66.79
2019-03-04T02:42:23.623Z,66.39
2019-03-04T02:47:30.641Z,66.44
2019-03-04T02:52:37.634Z,67.39
2019-03-04T02:57:46.089Z,67.62
2019-03-04T03:02:53.206Z,67.51
2019-03-04T03:08:00.135Z,67.40
2019-03-04T03:13:07.191Z,67.69
2019-03-04T03:18:14.365Z,67.36
2019-03-04T03:23:21.283Z,67.82
2019-03-04T03:28:28.241Z,68.52
2019-03-04T03:33:36.234Z,68.43
2019-03-04T03:38:43.181Z,68.18
2019-03-04T03:43:50.129Z,69.23
2019-03-04T03:48:58.035Z,68.61
2019-03-04T03:54:05.139Z,68.50
2019-03-04T03:59:12.126Z,68.31
2019-03-04T04:04:19.020Z,67.66
2019-03-04T04:09:26.052Z,66.86
2019-03-04T04:14:32.996Z,66.33
2019-03-04T04:19:39.930Z,66.35
2019-03-04T04:24:47.003Z,66.61
2019-03-04T04:29:54.027Z,66.76
2019-03-04T04:35:00.945Z,66.13
2019-03-04T04:40:08.118Z,65.87
2019-03-04T04:45:15.425Z,65.96
2019-03-04T04:50:22.554Z,65.46
2019-03-04T04:55:29.597Z,65.17
2019-03-04T05:00:36.647Z,65.54
2019-03-04T05:05:43.638Z,65.00
2019-03-04T05:10:50.569Z,64.64
2019-03-04T05:15:57.534Z,64.76
2019-03-04T05:21:04.485Z,65.14
2019-03-04T05:26:11.720Z,65.27
2019-03-04T05:31:18.658Z,64.67
2019-03-04T05:36:25.657Z,63.55
2019-03-04T05:41:33.581Z,63.32
2019-03-04T05:46:41.638Z,62.43
2019-03-04T05:51:48.634Z,62.56
2019-03-04T05:56:55.572Z,61.68
2019-03-04T06:02:08.387Z,61.32
2019-03-04T06:07:32.756Z,60.75
2019-03-04T06:12:39.909Z,60.50
2019-03-04T06:17:46.911Z,60.40
2019-03-04T06:22:53.952Z,59.57
2019-03-04T06:28:00.905Z,58.99
2019-03-04T06:33:07.849Z,58.81
2019-03-04T06:38:14.888Z,58.58
2019-03-04T06:43:21.832Z,58.57
2019-03-04T06:48:28.793Z,57.82
2019-03-04T06:54:09.061Z,55.93
2019-03-04T07:00:00.538Z,54.91
2019-03-04T07:05:44.369Z,54.87
2019-03-04T07:10:51.460Z,53.89
2019-03-04T07:15:58.537Z,53.52
2019-03-04T07:21:05.550Z,53.58
2019-03-04T07:26:12.557Z,52.37
2019-03-04T07:31:19.590Z,52.07
2019-03-04T07:36:26.723Z,52.29
2019-03-04T07:41:39.136Z,52.62
2019-03-04T07:46:46.066Z,52.58
2019-03-04T07:51:53.259Z,51.81
2019-03-04T07:57:00.268Z,50.25
2019-03-04T08:02:07.293Z,49.54
2019-03-04T08:07:42.666Z,49.73
2019-03-04T08:13:05.038Z,50.98
2019-03-04T08:18:11.967Z,50.28
2019-03-04T08:23:18.982Z,49.87
2019-03-04T08:28:25.984Z,49.88
2019-03-04T08:33:34.069Z,50.63
2019-03-04T08:38:41.980Z,49.50
2019-03-04T08:43:48.918Z,48.58
2019-03-04T08:48:55.969Z,47.86
2019-03-04T08:54:05.715Z,47.41
2019-03-04T08:59:12.651Z,47.06
2019-03-04T09:04:19.569Z,45.54
2019-03-04T09:09:26.964Z,45.52
2019-03-04T09:14:33.882Z,44.69
2019-03-04T09:19:40.815Z,43.54
2019-03-04T09:24:47.748Z,42.76
2019-03-04T09:29:54.654Z,42.85
2019-03-04T09:35:01.703Z,41.92
2019-03-04T09:40:11.087Z,40.03
2019-03-04T09:45:18.566Z,36.99
2019-03-04T09:50:25.769Z,37.31
2019-03-04T09:55:32.806Z,36.65
2019-03-04T10:01:36.084Z,36.04
2019-03-04T10:07:07.306Z,35.40
2019-03-04T10:12:29.537Z,35.89
2019-03-04T10:17:51.317Z,36.99
2019-03-04T10:23:15.891Z,36.34
2019-03-04T10:29:06.576Z,35.75
2019-03-04T10:35:04.624Z,35.79
2019-03-04T10:40:51.956Z,35.63
2019-03-04T10:46:20.343Z,35.92
2019-03-04T10:51:27.364Z,36.24
2019-03-04T10:56:34.391Z,36.99
2019-03-04T11:01:41.301Z,38.02
2019-03-04T11:06:48.327Z,51.10
2019-03-04T11:11:55.395Z,54.68
2019-03-04T11:17:02.340Z,54.87
2019-03-04T11:22:09.749Z,52.10
2019-03-04T11:27:16.818Z,51.56
2019-03-04T11:32:23.757Z,49.75
2019-03-04T11:37:30.695Z,48.96
2019-03-04T11:42:37.712Z,48.68
2019-03-04T11:47:44.732Z,49.48
2019-03-04T11:52:52.671Z,49.20
2019-03-04T11:57:59.699Z,49.06
2019-03-04T12:03:06.683Z,48.62
2019-03-04T12:08:13.683Z,48.08
2019-03-04T12:13:20.671Z,47.59
2019-03-04T12:18:27.742Z,47.39
2019-03-04T12:23:34.730Z,47.47
2019-03-04T12:28:47.600Z,46.89
2019-03-04T12:33:50.395Z,47.17
2019-03-04T12:38:57.307Z,46.60
2019-03-04T12:44:04.440Z,46.39
2019-03-04T12:49:11.371Z,45.72
2019-03-04T12:54:18.292Z,45.05
2019-03-04T12:59:25.284Z,43.60
2019-03-04T13:04:32.208Z,42.24
2019-03-04T13:09:39.115Z,40.27
2019-03-04T13:14:46.091Z,38.40
2019-03-04T13:19:53.017Z,38.31
2019-03-04T13:24:59.959Z,36.85
2019-03-04T13:30:08.694Z,36.99
2019-03-04T13:35:24.493Z,36.51
2019-03-04T13:40:26.570Z,35.72
2019-03-04T13:45:33.592Z,35.23
2019-03-04T13:50:40.866Z,35.49
2019-03-04T13:55:47.967Z,35.47
2019-03-04T14:00:54.915Z,36.53
2019-03-04T14:06:01.822Z,36.73
2019-03-04T14:11:09.827Z,37.41
2019-03-04T14:16:17.613Z,38.48
2019-03-04T14:21:24.603Z,39.62
2019-03-04T14:26:31.604Z,40.12
2019-03-04T14:31:38.672Z,38.04
2019-03-04T14:36:45.588Z,36.18
2019-03-04T14:41:53.654Z,35.80
2019-03-04T14:47:00.617Z,35.78
2019-03-04T14:52:07.740Z,36.13
2019-03-04T14:57:14.919Z,36.70
2019-03-04T15:02:21.879Z,38.51
2019-03-04T15:07:28.800Z,40.63
2019-03-04T15:12:35.799Z,40.53
2019-03-04T15:17:42.803Z,40.04
2019-03-04T15:22:51.070Z,41.01
2019-03-04T15:28:09.702Z,43.16
2019-03-04T15:33:18.401Z,45.65
2019-03-04T15:38:26.378Z,51.44
2019-03-04T15:43:33.331Z,63.53
2019-03-04T15:48:40.337Z,66.12
2019-03-04T15:53:47.317Z,65.19
2019-03-04T15:58:54.273Z,62.82
2019-03-04T16:04:01.330Z,62.34
2019-03-04T16:09:14.968Z,62.78
2019-03-04T16:14:21.980Z,62.27
2019-03-04T16:19:28.954Z,58.86
2019-03-04T16:24:35.944Z,65.40
2019-03-04T16:29:42.870Z,74.70
2019-03-04T16:34:49.883Z,79.94
2019-03-04T16:39:57.148Z,80.73
2019-03-04T16:45:04.642Z,81.18
2019-03-04T16:50:13.076Z,82.76
2019-03-04T16:55:20.260Z,82.32
2019-03-04T17:00:28.156Z,82.18
2019-03-04T17:05:35.889Z,81.32
2019-03-04T17:10:42.836Z,81.09
2019-03-04T17:15:49.985Z,81.09
2019-03-04T17:20:57.304Z,81.02
2019-03-04T17:26:04.417Z,79.34
2019-03-04T17:31:11.350Z,79.06
2019-03-04T17:36:18.304Z,78.94
2019-03-04T17:41:31.053Z,79.25
2019-03-04T17:46:38.142Z,78.66
2019-03-04T17:51:46.848Z,79.01
2019-03-04T17:57:00.161Z,78.80
2019-03-04T18:02:09.639Z,77.51
2019-03-04T18:07:16.691Z,77.90
2019-03-04T18:12:23.677Z,77.88
2019-03-04T18:17:31.073Z,78.66
2019-03-04T18:22:38.245Z,78.52
2019-03-04T18:27:50.085Z,78.81
2019-03-04T18:33:52.719Z,78.62
2019-03-04T18:46:08.086Z,78.55
2019-03-04T18:51:15.130Z,78.91
2019-03-04T18:56:22.488Z,78.12
2019-03-04T19:01:32.254Z,77.42
2019-03-04T19:06:39.349Z,77.33
2019-03-04T19:11:46.559Z,77.46
2019-03-04T19:16:53.730Z,76.29
2019-03-04T19:22:00.734Z,75.96
2019-03-04T19:27:07.701Z,76.16
2019-03-04T19:32:14.643Z,76.06
2019-03-04T19:37:21.567Z,75.36
2019-03-04T19:42:28.591Z,75.26
2019-03-04T19:47:36.985Z,74.43
2019-03-04T19:52:44.179Z,74.08
2019-03-04T19:57:51.266Z,74.14
2019-03-04T20:03:10.743Z,73.74
2019-03-04T20:08:18.054Z,72.72
2019-03-04T20:13:26.398Z,72.27
2019-03-04T20:18:33.298Z,72.12
2019-03-04T20:23:40.418Z,71.72
2019-03-04T20:28:47.343Z,71.62
2019-03-04T20:33:57.609Z,70.89
2019-03-04T20:39:06.006Z,69.63
2019-03-04T20:44:16.075Z,70.10
2019-03-04T20:49:23.262Z,69.71
2019-03-04T20:54:30.331Z,69.65
2019-03-04T20:59:37.337Z,69.20
2019-03-04T21:04:44.259Z,69.18
2019-03-04T21:09:51.271Z,68.77
2019-03-04T21:14:58.189Z,67.63
2019-03-04T21:20:06.489Z,67.00
2019-03-04T21:26:17.735Z,66.89
2019-03-04T21:31:44.048Z,66.37
2019-03-04T21:36:55.219Z,66.59
2019-03-04T21:42:09.389Z,66.94
2019-03-04T21:47:26.995Z,67.41
2019-03-04T21:52:43.430Z,67.77
2019-03-04T21:57:55.625Z,68.18
2019-03-04T22:03:18.034Z,68.49
2019-03-04T22:08:25.315Z,69.05
2019-03-04T22:13:32.552Z,69.18
2019-03-04T22:18:39.519Z,69.41
2019-03-04T22:23:46.520Z,69.21
2019-03-04T22:28:53.532Z,68.10
2019-03-04T22:34:00.603Z,68.35
2019-03-04T22:39:08.086Z,68.06
2019-03-04T22:44:16.640Z,68.22
2019-03-04T22:49:23.645Z,67.39
2019-03-04T22:54:30.660Z,67.21
2019-03-04T22:59:38.128Z,67.12
2019-03-04T23:05:06.412Z,67.33
2019-03-04T23:10:49.007Z,67.04
2019-03-04T23:15:58.759Z,67.07
2019-03-04T23:21:06.613Z,66.64
2019-03-04T23:26:13.667Z,67.29
2019-03-04T23:31:22.269Z,65.98
2019-03-04T23:36:29.189Z,64.78
2019-03-04T23:41:36.134Z,65.21
2019-03-04T23:46:44.007Z,65.91
2019-03-04T23:51:52.714Z,65.69
2019-03-04T23:56:59.722Z,65.97
